This is the latest recevied weather packets stored in our database for station/object IT9KVB-11. If no packets are shown the sender has not sent any weather packets the latest 10 day(s).
| Time | Temp. | Humidity | Pressure | Rain* | Wind** | Luminosity | Snow |
|---|---|---|---|---|---|---|---|
| 1777539306 | 22.22° C | 34% | 923 hPa | 0 mm | 0 m/s | - | - |
| 1777538390 | 21.67° C | 31% | 923 hPa | 0 mm | 0 m/s | - | - |
| 1777537474 | 20.56° C | 37% | 923 hPa | 0 mm | 0 m/s | - | - |
| 1777536558 | 21.11° C | 41% | 923 hPa | 0 mm | 0 m/s | - | - |
| 1777535642 | 20.56° C | 40% | 923 hPa | 0 mm | 0 m/s | - | - |
| 1777534726 | 20° C | 40% | 923 hPa | 0 mm | 0 m/s | - | - |
| 1777533810 | 17.78° C | 46% | 923 hPa | 0 mm | 0 m/s | - | - |
| 1777532894 | 16.11° C | 53% | 923 hPa | 0 mm | 3.13 m/s, 0° | - | - |
| 1777531978 | 15.56° C | 48% | 923 hPa | 0 mm | 13.86 m/s, 0° | - | - |
| 1777531062 | 16.11° C | 50% | 923 hPa | 0 mm | 16.09 m/s, 0° | - | - |
| 1777530147 | 13.89° C | 48% | 923 hPa | 0 mm | 19.22 m/s, 0° | - | - |
| 1777529231 | 14.44° C | 53% | 923 hPa | 0 mm | 0.89 m/s, 0° | - | - |
| 1777528315 | 16.67° C | 45% | 922 hPa | 0 mm | 0 m/s | - | - |
| 1777527399 | 16.11° C | 37% | 922 hPa | 0 mm | 0 m/s | - | - |
| 1777526483 | 5° C | 94% | 917 hPa | 0 mm | 0 m/s | - | - |
| 1777525567 | 5° C | 94% | 917 hPa | 0 mm | 0 m/s | - | - |
| 1777524651 | 5° C | 94% | 917 hPa | 0 mm | 0 m/s | - | - |
| 1777523735 | 5° C | 94% | 917 hPa | 0 mm | 0 m/s | - | - |
| 1777522819 | 5° C | 94% | 917 hPa | 0 mm | 0 m/s | - | - |
| 1777521903 | 5° C | 94% | 917 hPa | 0 mm | 0 m/s | - | - |
| 1777520987 | 5° C | 94% | 917 hPa | 0 mm | 0 m/s | - | - |
| 1777520071 | 5° C | 94% | 917 hPa | 0 mm | 0 m/s | - | - |
| 1777519155 | 5° C | 94% | 917 hPa | 0 mm | 0 m/s | - | - |
| 1777518239 | 5° C | 94% | 917 hPa | 0 mm | 0 m/s | - | - |
| 1777517323 | 5° C | 94% | 917 hPa | 0 mm | 0 m/s | - | - |
* Rain latest hour (hover to see other rain measurements)
** Current wind speed in m/s (hover to see current wind gust speed)